This demonstration page uses our WeatherBlox Daily Observations layout. Learn more.

39.92423, -83.80882

Hourly Observations for June 7, 2019

Temp ( °F °C ) Dew Point ( °F °C ) Humidity (%) Winds ( mph kmh ) Pressure ( in mb ) Visibility ( mi km ) Precip ( " mm )
12:56 am 00:56 Clear 63 17.2 63 17.2 100 100 NE 8 13 29.9 1013 8 12.87472 0 0
1:56 am 01:56 Clear 63 17.2 63 17.2 100 100 NE 7 11 29.89 1012 7 11.26538 0 0
2:56 am 02:56 Clear with Mist and Fog 63 17.2 63 17.2 100 100 NE 8 13 29.88 1012 6 9.65604 0 0
4:56 am 04:56 Clear with Mist and Fog 61 16.1 61 16.1 100 100 NE 7 11 29.88 1012 5 8.0467 0 0
5:56 am 05:56 Partly Cloudy with Mist and Fog 61 16.1 61 16.1 100 100 ENE 7 11 29.89 1012 4 6.43736 0 0
6:56 am 06:56 Sunny with Mist and Fog 61 16.1 61 16.1 100 100 NE 9 15 29.9 1013 3 4.82802 0 0
7:56 am 07:56 Sunny with Mist and Fog 63 17.2 62 16.7 97 97 ENE 12 19 29.91 1013 6 9.65604 0 0
8:56 am 08:56 Sunny 65 18.3 62 16.7 90 90 ENE 10 17 29.92 1013 10 16.0934 0 0
9:56 am 09:56 Sunny 67 19.4 62 16.7 84 84 ENE 12 19 29.92 1013 10 16.0934 0 0
10:56 am 10:56 Sunny 71 21.7 62 16.7 73 73 NE 14 22 29.92 1013 10 16.0934 0 0
11:56 am 11:56 Sunny 72 22.2 62 16.7 71 71 ENE 13 20 29.93 1013 10 16.0934 0 0
12:56 pm 12:56 Sunny 74 23.3 60 15.6 62 62 ENE 17 28 29.92 1013 10 16.0934 0 0
1:56 pm 13:56 Sunny 76 24.4 60 15.6 58 58 NE 20 31 29.91 1013 10 16.0934 0 0
2:56 pm 14:56 Sunny 77 25 61 16.1 58 58 ENE 17 28 29.9 1012 10 16.0934 0 0
4:56 pm 16:56 Sunny 76 24.4 60 15.6 58 58 ENE 17 28 29.88 1012 10 16.0934 0 0
5:56 pm 17:56 Sunny 75 23.9 59 15 58 58 ENE 14 22 29.87 1012 10 16.0934 0 0
6:56 pm 18:56 Sunny 74 23.3 61 16.1 64 64 ENE 15 24 29.87 1011 10 16.0934 0 0
7:56 pm 19:56 Sunny 72 22.2 61 16.1 68 68 ENE 17 28 29.89 1012 10 16.0934 0 0
8:56 pm 20:56 Sunny 71 21.7 57 13.9 61 61 ENE 15 24 29.9 1013 10 16.0934 0 0
9:56 pm 21:56 Clear 70 21.1 56 13.3 61 61 ENE 14 22 29.91 1013 10 16.0934 0 0
10:56 pm 22:56 Clear 69 20.6 55 12.8 61 61 NE 10 17 29.93 1014 10 16.0934 0 0
11:56 pm 23:56 Clear 67 19.4 58 14.4 73 73 NE 14 22 29.93 1013 10 16.0934 0 0

Powered by AerisWeather